createdAt,value
2017-06-29T00:01:14.693Z,0
2017-06-29T00:03:16.121Z,0
2017-06-29T00:05:17.549Z,0
2017-06-29T00:07:18.975Z,0
2017-06-29T00:09:20.401Z,0
2017-06-29T00:11:21.829Z,0
2017-06-29T00:13:23.254Z,0
2017-06-29T00:15:24.683Z,0
2017-06-29T00:17:26.109Z,0
2017-06-29T00:19:27.535Z,0
2017-06-29T00:21:28.968Z,0
2017-06-29T00:23:30.392Z,0
2017-06-29T00:25:31.819Z,0
2017-06-29T00:27:33.313Z,0
2017-06-29T00:29:34.754Z,0
2017-06-29T00:31:36.195Z,0
2017-06-29T00:33:37.619Z,0
2017-06-29T00:35:39.048Z,0
2017-06-29T00:37:40.476Z,0
2017-06-29T00:39:41.903Z,0
2017-06-29T00:41:43.344Z,0
2017-06-29T00:43:44.780Z,0
2017-06-29T00:45:46.206Z,0
2017-06-29T00:47:47.636Z,0
2017-06-29T00:49:49.061Z,0
2017-06-29T00:51:50.495Z,0
2017-06-29T00:53:51.912Z,0
2017-06-29T00:55:53.354Z,0
2017-06-29T00:57:54.789Z,0
2017-06-29T00:59:56.222Z,0
2017-06-29T01:01:57.670Z,0
2017-06-29T01:03:59.109Z,0
2017-06-29T01:06:00.525Z,0
2017-06-29T01:08:01.955Z,0
2017-06-29T01:10:03.384Z,0
2017-06-29T01:12:04.818Z,0
2017-06-29T01:14:06.238Z,0
2017-06-29T01:16:07.668Z,0
2017-06-29T01:18:09.096Z,0
2017-06-29T01:20:10.526Z,0
2017-06-29T01:22:11.951Z,0
2017-06-29T01:24:13.381Z,0
2017-06-29T01:26:14.815Z,0
2017-06-29T01:28:16.242Z,0
2017-06-29T01:30:17.669Z,0
2017-06-29T01:32:19.098Z,0
2017-06-29T01:34:20.527Z,0
2017-06-29T01:36:21.948Z,0
2017-06-29T01:38:23.380Z,0
2017-06-29T01:40:24.806Z,0
2017-06-29T01:42:26.235Z,0
2017-06-29T01:44:27.662Z,0
2017-06-29T01:46:29.090Z,0
2017-06-29T01:48:30.517Z,0
2017-06-29T01:50:31.949Z,0
2017-06-29T01:52:33.378Z,0
2017-06-29T01:54:34.804Z,0
2017-06-29T01:56:36.231Z,0
2017-06-29T01:58:37.661Z,0
2017-06-29T02:00:39.086Z,0
2017-06-29T02:02:40.517Z,0
2017-06-29T02:04:41.940Z,0
2017-06-29T02:06:43.366Z,0
2017-06-29T02:08:44.795Z,0
2017-06-29T02:10:46.225Z,0
2017-06-29T02:12:47.649Z,0
2017-06-29T02:14:49.077Z,0
2017-06-29T02:16:50.504Z,0
2017-06-29T02:18:51.930Z,0
2017-06-29T02:20:53.358Z,0
2017-06-29T02:22:54.787Z,0
2017-06-29T02:24:56.211Z,0
2017-06-29T02:26:57.643Z,0
2017-06-29T02:28:59.065Z,0
2017-06-29T02:31:00.488Z,0
2017-06-29T02:33:01.916Z,0
2017-06-29T02:35:03.348Z,0
2017-06-29T02:37:04.773Z,0
2017-06-29T02:39:06.200Z,0
2017-06-29T02:41:07.625Z,0
2017-06-29T02:43:09.052Z,0
2017-06-29T02:45:10.477Z,0
2017-06-29T02:47:11.905Z,0
2017-06-29T02:49:13.331Z,0
2017-06-29T02:51:14.753Z,0
2017-06-29T02:53:16.187Z,0
2017-06-29T02:55:17.612Z,4
2017-06-29T02:57:19.040Z,0
2017-06-29T02:59:20.465Z,4
2017-06-29T03:01:21.891Z,4
2017-06-29T03:03:23.628Z,4
2017-06-29T03:05:25.417Z,4
2017-06-29T03:07:27.215Z,4
2017-06-29T03:09:28.671Z,8
2017-06-29T03:11:30.107Z,8
2017-06-29T03:13:31.537Z,12
2017-06-29T03:15:32.971Z,16
2017-06-29T03:17:34.393Z,20
2017-06-29T03:19:35.825Z,24
2017-06-29T03:21:37.254Z,28
2017-06-29T03:23:38.682Z,32
2017-06-29T03:25:40.110Z,36
2017-06-29T03:27:41.537Z,48
2017-06-29T03:29:42.966Z,52
2017-06-29T03:31:44.392Z,60
2017-06-29T03:33:45.825Z,68
2017-06-29T03:35:47.252Z,84
2017-06-29T03:37:48.676Z,92
2017-06-29T03:39:50.106Z,100
2017-06-29T03:41:51.535Z,112
2017-06-29T03:43:52.968Z,128
2017-06-29T03:45:54.396Z,140
2017-06-29T03:47:55.823Z,152
2017-06-29T03:49:57.261Z,160
2017-06-29T03:51:58.682Z,168
2017-06-29T03:54:00.119Z,180
2017-06-29T03:56:01.584Z,196
2017-06-29T03:58:02.977Z,196
2017-06-29T04:00:04.424Z,196
2017-06-29T04:02:05.848Z,184
2017-06-29T04:04:07.282Z,184
2017-06-29T04:06:08.713Z,196
2017-06-29T04:08:10.142Z,196
2017-06-29T04:10:11.573Z,196
2017-06-29T04:12:13.003Z,204
2017-06-29T04:14:14.434Z,216
2017-06-29T04:16:15.867Z,224
2017-06-29T04:18:17.298Z,236
2017-06-29T04:20:18.728Z,244
2017-06-29T04:22:20.160Z,248
2017-06-29T04:24:21.590Z,264
2017-06-29T04:26:23.021Z,276
2017-06-29T04:28:24.450Z,296
2017-06-29T04:30:25.877Z,308
2017-06-29T04:32:27.309Z,328
2017-06-29T04:34:28.739Z,352
2017-06-29T04:36:30.170Z,380
2017-06-29T04:38:31.604Z,400
2017-06-29T04:40:33.028Z,416
2017-06-29T04:42:34.458Z,432
2017-06-29T04:44:35.887Z,456
2017-06-29T04:46:37.316Z,480
2017-06-29T04:48:38.749Z,516
2017-06-29T04:50:40.181Z,556
2017-06-29T04:52:41.610Z,576
2017-06-29T04:54:43.042Z,648
2017-06-29T04:56:44.470Z,680
2017-06-29T04:58:45.901Z,696
2017-06-29T05:00:47.333Z,732
2017-06-29T05:02:48.763Z,752
2017-06-29T05:04:50.212Z,780
2017-06-29T05:06:51.665Z,804
2017-06-29T05:08:53.126Z,840
2017-06-29T05:10:54.572Z,880
2017-06-29T05:12:56.245Z,980
2017-06-29T05:14:57.729Z,1124
2017-06-29T05:16:59.190Z,1112
2017-06-29T05:19:00.642Z,1272
2017-06-29T05:21:02.171Z,1368
2017-06-29T05:23:03.626Z,1408
2017-06-29T05:25:05.090Z,1468
2017-06-29T05:27:06.553Z,1620
2017-06-29T05:29:08.011Z,1580
2017-06-29T05:31:09.466Z,1548
2017-06-29T05:33:10.939Z,1960
2017-06-29T05:35:12.425Z,3272
2017-06-29T05:37:13.893Z,4052
2017-06-29T05:39:15.379Z,2544
2017-06-29T05:41:16.973Z,3680
2017-06-29T05:43:18.427Z,1480
2017-06-29T05:45:19.878Z,6360
2017-06-29T05:47:21.371Z,4712
2017-06-29T05:49:22.836Z,4732
2017-06-29T05:51:24.279Z,4236
2017-06-29T05:53:26.504Z,1368
2017-06-29T05:55:28.327Z,1848
2017-06-29T05:57:30.342Z,1872
2017-06-29T05:59:32.293Z,620
2017-06-29T06:01:34.173Z,2556
2017-06-29T06:03:36.195Z,2516
2017-06-29T06:05:40.918Z,1048
2017-06-29T06:07:42.705Z,6300
2017-06-29T06:09:44.601Z,10112
2017-06-29T06:11:47.363Z,1620
2017-06-29T06:13:49.128Z,4120
2017-06-29T06:15:50.983Z,820
2017-06-29T06:17:53.028Z,700
2017-06-29T06:19:55.739Z,632
2017-06-29T06:21:58.498Z,504
2017-06-29T06:24:03.512Z,384
2017-06-29T06:26:05.222Z,392
2017-06-29T06:28:07.147Z,496
2017-06-29T06:30:09.452Z,512
2017-06-29T06:32:11.269Z,756
2017-06-29T06:34:13.229Z,5616
2017-06-29T06:36:15.508Z,1524
2017-06-29T06:38:17.296Z,2116
2017-06-29T06:40:19.643Z,8340
2017-06-29T06:42:21.535Z,852
2017-06-29T06:44:24.112Z,3276
2017-06-29T06:46:26.558Z,948
2017-06-29T06:48:29.752Z,708
2017-06-29T06:50:32.158Z,508
2017-06-29T06:52:33.974Z,704
2017-06-29T06:54:36.420Z,888
2017-06-29T06:56:38.207Z,864
2017-06-29T06:58:40.844Z,916
2017-06-29T07:00:45.098Z,1920
2017-06-29T07:02:46.437Z,2828
2017-06-29T07:04:47.920Z,3184
2017-06-29T07:06:49.395Z,1008
2017-06-29T07:08:50.918Z,608
2017-06-29T07:10:52.413Z,764
2017-06-29T07:12:53.903Z,644
2017-06-29T07:14:55.365Z,552
2017-06-29T07:16:56.810Z,628
2017-06-29T07:18:58.289Z,560
2017-06-29T07:20:59.741Z,524
2017-06-29T07:23:01.173Z,680
2017-06-29T07:25:02.614Z,600
2017-06-29T07:27:04.049Z,644
2017-06-29T07:29:05.478Z,660
2017-06-29T07:31:06.915Z,508
2017-06-29T07:33:08.395Z,444
2017-06-29T07:35:09.788Z,528
2017-06-29T07:37:11.219Z,492
2017-06-29T07:39:12.653Z,564
2017-06-29T07:41:14.084Z,524
2017-06-29T07:43:15.519Z,540
2017-06-29T07:45:16.955Z,604
2017-06-29T07:47:18.387Z,632
2017-06-29T07:49:19.853Z,668
2017-06-29T07:51:21.284Z,684
2017-06-29T07:53:22.712Z,740
2017-06-29T07:55:24.145Z,876
2017-06-29T07:57:25.579Z,940
2017-06-29T07:59:27.013Z,1280
2017-06-29T08:01:28.447Z,1548
2017-06-29T08:03:29.889Z,1096
2017-06-29T08:05:31.321Z,876
2017-06-29T08:07:32.752Z,788
2017-06-29T08:09:34.182Z,692
2017-06-29T08:11:35.620Z,620
2017-06-29T08:13:37.051Z,668
2017-06-29T08:15:38.484Z,728
2017-06-29T08:17:39.919Z,828
2017-06-29T08:19:41.350Z,1012
2017-06-29T08:21:42.786Z,1080
2017-06-29T08:23:44.221Z,1004
2017-06-29T08:25:45.652Z,956
2017-06-29T08:27:47.086Z,1008
2017-06-29T08:29:48.521Z,1332
2017-06-29T08:31:49.956Z,1188
2017-06-29T08:33:51.391Z,996
2017-06-29T08:35:52.826Z,1004
2017-06-29T08:37:54.255Z,808
2017-06-29T08:39:55.694Z,664
2017-06-29T08:41:57.126Z,524
2017-06-29T08:43:58.563Z,428
2017-06-29T08:45:59.998Z,384
2017-06-29T08:48:01.426Z,312
2017-06-29T08:50:02.861Z,316
2017-06-29T08:52:04.289Z,332
2017-06-29T08:54:05.726Z,364
2017-06-29T08:56:07.159Z,428
2017-06-29T08:58:08.601Z,440
2017-06-29T09:00:10.033Z,436
2017-06-29T09:02:11.465Z,444
2017-06-29T09:04:12.899Z,472
2017-06-29T09:06:14.336Z,520
2017-06-29T09:08:15.769Z,568
2017-06-29T09:10:17.206Z,572
2017-06-29T09:12:18.638Z,556
2017-06-29T09:14:20.072Z,492
2017-06-29T09:16:21.504Z,392
2017-06-29T09:18:22.943Z,336
2017-06-29T09:20:24.373Z,300
2017-06-29T09:22:25.808Z,220
2017-06-29T09:24:27.239Z,148
2017-06-29T09:26:28.674Z,216
2017-06-29T09:28:30.107Z,336
2017-06-29T09:30:31.540Z,468
2017-06-29T09:32:32.974Z,640
2017-06-29T09:34:34.413Z,764
2017-06-29T09:36:35.842Z,828
2017-06-29T09:38:37.279Z,760
2017-06-29T09:40:38.708Z,564
2017-06-29T09:42:40.137Z,492
2017-06-29T09:44:42.036Z,520
2017-06-29T09:46:44.073Z,564
2017-06-29T09:48:48.274Z,580
2017-06-29T09:50:50.152Z,668
2017-06-29T09:52:52.013Z,696
2017-06-29T09:54:54.028Z,648
2017-06-29T09:56:56.287Z,668
2017-06-29T09:58:58.087Z,648
2017-06-29T10:01:00.035Z,576
2017-06-29T10:03:02.158Z,500
2017-06-29T10:05:07.458Z,364
2017-06-29T10:07:09.126Z,260
2017-06-29T10:09:11.224Z,176
2017-06-29T10:11:13.387Z,136
2017-06-29T10:13:15.411Z,164
2017-06-29T10:15:18.672Z,224
2017-06-29T10:17:20.509Z,384
2017-06-29T10:19:22.402Z,604
2017-06-29T10:21:24.961Z,804
2017-06-29T10:23:29.264Z,1140
2017-06-29T10:25:31.129Z,1220
2017-06-29T10:27:34.553Z,1140
2017-06-29T10:29:37.172Z,1112
2017-06-29T10:31:38.746Z,992
2017-06-29T10:33:40.355Z,1060
2017-06-29T10:35:41.805Z,1440
2017-06-29T10:37:43.302Z,1472
2017-06-29T10:39:44.775Z,1580
2017-06-29T10:41:46.218Z,1800
2017-06-29T10:43:47.688Z,1772
2017-06-29T10:45:49.162Z,1804
2017-06-29T10:47:50.679Z,1888
2017-06-29T10:49:52.128Z,1852
2017-06-29T10:51:53.581Z,1776
2017-06-29T10:53:55.166Z,1712
2017-06-29T10:55:56.645Z,1764
2017-06-29T10:57:58.140Z,1728
2017-06-29T10:59:59.637Z,1676
2017-06-29T11:02:01.119Z,1752
2017-06-29T11:04:02.607Z,1796
2017-06-29T11:06:04.133Z,1780
2017-06-29T11:08:05.615Z,1672
2017-06-29T11:10:07.065Z,1604
2017-06-29T11:12:08.560Z,1548
2017-06-29T11:14:10.023Z,1588
2017-06-29T11:16:11.522Z,1700
2017-06-29T11:18:13.017Z,1780
2017-06-29T11:20:14.715Z,1772
2017-06-29T11:22:16.239Z,1660
2017-06-29T11:24:17.749Z,1472
2017-06-29T11:26:19.308Z,1200
2017-06-29T11:28:20.758Z,1228
2017-06-29T11:30:22.235Z,1268
2017-06-29T11:32:23.682Z,1292
2017-06-29T11:34:25.198Z,1148
2017-06-29T11:36:26.675Z,1060
2017-06-29T11:38:28.141Z,1116
2017-06-29T11:40:29.644Z,1192
2017-06-29T11:42:31.126Z,1232
2017-06-29T11:44:32.580Z,1116
2017-06-29T11:46:34.043Z,736
2017-06-29T11:48:35.541Z,304
2017-06-29T11:50:37.021Z,288
2017-06-29T11:52:38.529Z,420
2017-06-29T11:54:39.983Z,556
2017-06-29T11:56:41.502Z,704
2017-06-29T11:58:42.966Z,816
2017-06-29T12:00:44.408Z,980
2017-06-29T12:02:45.898Z,1104
2017-06-29T12:04:47.413Z,1100
2017-06-29T12:06:48.869Z,996
2017-06-29T12:08:50.299Z,872
2017-06-29T12:10:51.730Z,768
2017-06-29T12:12:53.173Z,664
2017-06-29T12:14:54.598Z,520
2017-06-29T12:16:56.032Z,520
2017-06-29T12:18:57.466Z,552
2017-06-29T12:20:58.899Z,596
2017-06-29T12:23:00.331Z,640
2017-06-29T12:25:01.771Z,700
2017-06-29T12:27:03.262Z,772
2017-06-29T12:29:04.798Z,844
2017-06-29T12:31:06.308Z,912
2017-06-29T12:33:07.832Z,936
2017-06-29T12:35:09.324Z,920
2017-06-29T12:37:10.788Z,888
2017-06-29T12:39:12.255Z,812
2017-06-29T12:41:13.727Z,840
2017-06-29T12:43:15.358Z,860
2017-06-29T12:45:16.974Z,884
2017-06-29T12:47:18.737Z,908
2017-06-29T12:49:20.273Z,916
2017-06-29T12:51:21.771Z,924
2017-06-29T12:53:23.263Z,940
2017-06-29T12:55:24.720Z,968
2017-06-29T12:57:26.190Z,996
2017-06-29T12:59:27.633Z,1012
2017-06-29T13:01:29.176Z,1040
2017-06-29T13:03:30.605Z,1056
2017-06-29T13:05:32.035Z,1064
2017-06-29T13:07:33.473Z,1076
2017-06-29T13:09:34.907Z,1072
2017-06-29T13:11:36.340Z,1068
2017-06-29T13:13:37.781Z,1040
2017-06-29T13:15:39.214Z,996
2017-06-29T13:17:40.652Z,964
2017-06-29T13:19:42.083Z,936
2017-06-29T13:21:43.516Z,876
2017-06-29T13:23:44.950Z,844
2017-06-29T13:25:46.398Z,852
2017-06-29T13:27:47.819Z,884
2017-06-29T13:29:49.318Z,932
2017-06-29T13:31:50.797Z,952
2017-06-29T13:33:52.236Z,960
2017-06-29T13:35:53.670Z,940
2017-06-29T13:37:55.107Z,904
2017-06-29T13:39:56.706Z,880
2017-06-29T13:41:58.500Z,856
2017-06-29T13:43:59.933Z,912
2017-06-29T13:46:01.390Z,932
2017-06-29T13:48:02.873Z,944
2017-06-29T13:50:04.315Z,976
2017-06-29T13:52:05.763Z,980
2017-06-29T13:54:07.325Z,964
2017-06-29T13:56:08.804Z,888
2017-06-29T13:58:10.287Z,904
2017-06-29T14:00:11.749Z,916
2017-06-29T14:02:13.185Z,860
2017-06-29T14:04:14.616Z,716
2017-06-29T14:06:16.051Z,612
2017-06-29T14:08:17.486Z,588
2017-06-29T14:10:18.918Z,652
2017-06-29T14:12:20.353Z,676
2017-06-29T14:14:21.781Z,660
2017-06-29T14:16:23.278Z,636
2017-06-29T14:18:24.715Z,512
2017-06-29T14:20:26.144Z,380
2017-06-29T14:22:27.577Z,320
2017-06-29T14:24:29.019Z,320
2017-06-29T14:26:30.453Z,372
2017-06-29T14:28:31.891Z,332
2017-06-29T14:30:33.322Z,328
2017-06-29T14:32:34.756Z,300
2017-06-29T14:34:36.194Z,320
2017-06-29T14:36:37.626Z,332
2017-06-29T14:38:39.063Z,364
2017-06-29T14:40:40.493Z,460
2017-06-29T14:42:41.926Z,532
2017-06-29T14:44:43.365Z,596
2017-06-29T14:46:44.805Z,616
2017-06-29T14:48:46.238Z,616
2017-06-29T14:50:47.685Z,636
2017-06-29T14:52:49.161Z,636
2017-06-29T14:54:51.839Z,624
2017-06-29T14:56:53.558Z,612
2017-06-29T14:58:55.364Z,608
2017-06-29T15:00:57.601Z,600
2017-06-29T15:02:59.428Z,596
2017-06-29T15:05:01.789Z,588
2017-06-29T15:07:03.588Z,584
2017-06-29T15:09:06.047Z,572
2017-06-29T15:11:08.629Z,564
2017-06-29T15:13:10.204Z,560
2017-06-29T15:15:11.988Z,552
2017-06-29T15:17:14.168Z,548
2017-06-29T15:19:16.661Z,548
2017-06-29T15:21:18.461Z,552
2017-06-29T15:23:20.678Z,548
2017-06-29T15:25:23.031Z,548
2017-06-29T15:27:24.735Z,552
2017-06-29T15:29:26.634Z,556
2017-06-29T15:31:28.498Z,556
2017-06-29T15:33:30.749Z,560
2017-06-29T15:35:32.503Z,556
2017-06-29T15:37:34.280Z,556
2017-06-29T15:39:36.235Z,548
2017-06-29T15:41:38.019Z,544
2017-06-29T15:43:39.936Z,536
2017-06-29T15:45:42.436Z,520
2017-06-29T15:47:44.445Z,500
2017-06-29T15:49:46.148Z,460
2017-06-29T15:51:47.977Z,428
2017-06-29T15:53:50.350Z,404
2017-06-29T15:55:52.411Z,416
2017-06-29T15:57:54.186Z,408
2017-06-29T15:59:56.036Z,436
2017-06-29T16:01:58.247Z,452
2017-06-29T16:04:00.430Z,456
2017-06-29T16:06:02.715Z,456
2017-06-29T16:08:04.458Z,440
2017-06-29T16:10:06.235Z,416
2017-06-29T16:12:08.088Z,396
2017-06-29T16:14:10.451Z,376
2017-06-29T16:16:12.125Z,364
2017-06-29T16:18:13.922Z,360
2017-06-29T16:20:15.717Z,356
2017-06-29T16:22:17.919Z,356
2017-06-29T16:24:20.512Z,364
2017-06-29T16:26:22.288Z,364
2017-06-29T16:28:24.121Z,356
2017-06-29T16:30:25.816Z,340
2017-06-29T16:32:27.744Z,340
2017-06-29T16:34:29.853Z,344
2017-06-29T16:36:31.998Z,352
2017-06-29T16:38:33.964Z,368
2017-06-29T16:40:35.692Z,380
2017-06-29T16:42:37.470Z,384
2017-06-29T16:44:39.842Z,384
2017-06-29T16:46:41.834Z,380
2017-06-29T16:48:44.111Z,376
2017-06-29T16:50:45.889Z,372
2017-06-29T16:52:47.834Z,360
2017-06-29T16:54:49.828Z,352
2017-06-29T16:56:52.284Z,344
2017-06-29T16:58:54.645Z,340
2017-06-29T17:00:57.144Z,336
2017-06-29T17:02:59.441Z,328
2017-06-29T17:05:01.174Z,320
2017-06-29T17:07:03.106Z,312
2017-06-29T17:09:04.881Z,308
2017-06-29T17:11:07.164Z,308
2017-06-29T17:13:09.434Z,308
2017-06-29T17:15:11.103Z,300
2017-06-29T17:17:13.026Z,296
2017-06-29T17:19:15.351Z,292
2017-06-29T17:21:17.177Z,288
2017-06-29T17:23:19.148Z,292
2017-06-29T17:25:20.956Z,288
2017-06-29T17:27:22.928Z,284
2017-06-29T17:29:24.740Z,284
2017-06-29T17:31:26.433Z,280
2017-06-29T17:33:28.265Z,280
2017-06-29T17:35:30.107Z,272
2017-06-29T17:37:31.737Z,264
2017-06-29T17:39:33.551Z,256
2017-06-29T17:41:35.398Z,256
2017-06-29T17:43:37.249Z,252
2017-06-29T17:45:39.673Z,248
2017-06-29T17:47:41.754Z,240
2017-06-29T17:49:43.527Z,228
2017-06-29T17:51:45.288Z,220
2017-06-29T17:53:47.152Z,212
2017-06-29T17:55:49.054Z,208
2017-06-29T17:57:51.589Z,200
2017-06-29T17:59:53.628Z,196
2017-06-29T18:01:55.283Z,188
2017-06-29T18:03:57.307Z,176
2017-06-29T18:05:59.068Z,172
2017-06-29T18:08:00.818Z,164
2017-06-29T18:10:03.283Z,168
2017-06-29T18:12:05.193Z,160
2017-06-29T18:14:06.932Z,160
2017-06-29T18:16:08.723Z,152
2017-06-29T18:18:10.437Z,148
2017-06-29T18:20:12.290Z,144
2017-06-29T18:22:14.172Z,140
2017-06-29T18:24:16.020Z,136
2017-06-29T18:26:17.861Z,136
2017-06-29T18:28:19.743Z,132
2017-06-29T18:30:21.655Z,124
2017-06-29T18:32:23.728Z,120
2017-06-29T18:34:26.199Z,116
2017-06-29T18:36:28.031Z,112
2017-06-29T18:38:29.854Z,108
2017-06-29T18:40:31.637Z,100
2017-06-29T18:42:33.500Z,96
2017-06-29T18:44:35.259Z,88
2017-06-29T18:46:37.743Z,84
2017-06-29T18:48:39.459Z,80
2017-06-29T18:50:41.329Z,80
2017-06-29T18:52:43.743Z,80
2017-06-29T18:54:45.414Z,72
2017-06-29T18:56:47.821Z,72
2017-06-29T18:58:50.360Z,72
2017-06-29T19:00:52.234Z,64
2017-06-29T19:02:54.105Z,60
2017-06-29T19:04:56.445Z,56
2017-06-29T19:06:58.232Z,52
2017-06-29T19:08:59.877Z,48
2017-06-29T19:11:01.664Z,44
2017-06-29T19:13:03.157Z,40
2017-06-29T19:15:04.662Z,36
2017-06-29T19:17:06.119Z,32
2017-06-29T19:19:07.593Z,32
2017-06-29T19:21:09.032Z,28
2017-06-29T19:23:10.463Z,24
2017-06-29T19:25:11.901Z,24
2017-06-29T19:27:13.336Z,16
2017-06-29T19:29:14.768Z,20
2017-06-29T19:31:16.198Z,16
2017-06-29T19:33:17.630Z,12
2017-06-29T19:35:19.063Z,12
2017-06-29T19:37:20.492Z,12
2017-06-29T19:39:21.937Z,12
2017-06-29T19:41:23.366Z,8
2017-06-29T19:43:24.796Z,4
2017-06-29T19:45:26.223Z,8
2017-06-29T19:47:27.658Z,4
2017-06-29T19:49:29.089Z,4
2017-06-29T19:51:30.519Z,4
2017-06-29T19:53:31.946Z,4
2017-06-29T19:55:33.378Z,4
2017-06-29T19:57:34.826Z,4
2017-06-29T19:59:36.253Z,0
2017-06-29T20:01:37.685Z,4
2017-06-29T20:03:39.114Z,4
2017-06-29T20:05:40.548Z,0
2017-06-29T20:07:41.995Z,0
2017-06-29T20:09:43.448Z,4
2017-06-29T20:11:44.877Z,0
2017-06-29T20:13:46.351Z,0
2017-06-29T20:15:47.778Z,0
2017-06-29T20:17:49.206Z,0
2017-06-29T20:19:50.634Z,0
2017-06-29T20:21:52.067Z,0
2017-06-29T20:23:53.494Z,0
2017-06-29T20:25:54.924Z,0
2017-06-29T20:27:56.355Z,0
2017-06-29T20:29:57.784Z,0
2017-06-29T20:31:59.215Z,0
2017-06-29T20:34:00.642Z,0
2017-06-29T20:36:02.072Z,0
2017-06-29T20:38:03.504Z,0
2017-06-29T20:40:04.930Z,0
2017-06-29T20:42:06.357Z,0
2017-06-29T20:44:07.790Z,0
2017-06-29T20:46:09.215Z,0
2017-06-29T20:48:10.647Z,0
2017-06-29T20:50:12.074Z,0
2017-06-29T20:52:13.508Z,0
2017-06-29T20:54:14.938Z,0
2017-06-29T20:56:16.368Z,0
2017-06-29T20:58:17.795Z,0
2017-06-29T21:00:19.226Z,0
2017-06-29T21:02:20.654Z,0
2017-06-29T21:04:22.079Z,0
2017-06-29T21:06:23.520Z,0
2017-06-29T21:08:24.936Z,0
2017-06-29T21:10:26.375Z,0
2017-06-29T21:12:27.807Z,0
2017-06-29T21:14:29.236Z,0
2017-06-29T21:16:30.664Z,0
2017-06-29T21:18:32.091Z,0
2017-06-29T21:20:33.520Z,0
2017-06-29T21:22:34.951Z,0
2017-06-29T21:24:36.384Z,0
2017-06-29T21:26:37.812Z,0
2017-06-29T21:28:39.240Z,0
2017-06-29T21:30:40.667Z,0
2017-06-29T21:32:42.098Z,0
2017-06-29T21:34:43.526Z,0
2017-06-29T21:36:44.955Z,0
2017-06-29T21:38:46.385Z,0
2017-06-29T21:40:47.813Z,0
2017-06-29T21:42:49.242Z,0
2017-06-29T21:44:50.674Z,0
2017-06-29T21:46:52.099Z,0
2017-06-29T21:48:53.532Z,0
2017-06-29T21:50:54.979Z,0
2017-06-29T21:52:56.524Z,0
2017-06-29T21:54:57.980Z,0
2017-06-29T21:56:59.413Z,0
2017-06-29T21:59:00.839Z,0
2017-06-29T22:01:02.273Z,0
2017-06-29T22:03:03.702Z,0
2017-06-29T22:05:05.134Z,0
2017-06-29T22:07:06.565Z,0
2017-06-29T22:09:07.988Z,0
2017-06-29T22:11:09.426Z,0
2017-06-29T22:13:10.849Z,0
2017-06-29T22:15:12.281Z,0
2017-06-29T22:17:13.712Z,0
2017-06-29T22:19:15.168Z,0
2017-06-29T22:21:16.599Z,0
2017-06-29T22:23:18.100Z,0
2017-06-29T22:25:19.536Z,0
2017-06-29T22:27:20.968Z,0
2017-06-29T22:29:22.392Z,0
2017-06-29T22:31:23.821Z,0
2017-06-29T22:33:25.250Z,0
2017-06-29T22:35:26.679Z,0
2017-06-29T22:37:28.108Z,0
2017-06-29T22:39:29.542Z,0
2017-06-29T22:41:31.001Z,0
2017-06-29T22:43:32.428Z,0
2017-06-29T22:45:33.859Z,0
2017-06-29T22:47:35.287Z,0
2017-06-29T22:49:36.721Z,0
2017-06-29T22:51:38.179Z,0
2017-06-29T22:53:39.605Z,0
2017-06-29T22:55:41.349Z,0
2017-06-29T22:57:42.825Z,0
2017-06-29T22:59:44.285Z,0
2017-06-29T23:01:45.713Z,0
2017-06-29T23:03:47.144Z,0
2017-06-29T23:05:48.571Z,0
2017-06-29T23:07:50.001Z,0
2017-06-29T23:09:51.438Z,0
2017-06-29T23:11:52.866Z,0
2017-06-29T23:13:54.298Z,0
2017-06-29T23:15:55.728Z,0
2017-06-29T23:17:57.157Z,0
2017-06-29T23:19:58.591Z,0
2017-06-29T23:22:00.016Z,0
2017-06-29T23:24:01.450Z,0
2017-06-29T23:26:02.880Z,0
2017-06-29T23:28:04.307Z,0
2017-06-29T23:30:05.735Z,0
2017-06-29T23:32:07.164Z,0
2017-06-29T23:34:08.595Z,0
2017-06-29T23:36:10.021Z,0
2017-06-29T23:38:11.450Z,0
2017-06-29T23:40:12.878Z,0
2017-06-29T23:42:14.304Z,0
2017-06-29T23:44:15.749Z,0
2017-06-29T23:46:17.172Z,0
2017-06-29T23:48:18.600Z,0
2017-06-29T23:50:20.021Z,0
2017-06-29T23:52:21.455Z,0
2017-06-29T23:54:22.900Z,0
2017-06-29T23:56:24.310Z,0
2017-06-29T23:58:25.740Z,0
